Time;durP1;ratioP1;P1;durP2;ratioP2;P2;SDS_P1;SDS_P2;PMS_P1;PMS_P2;Temp;Humidity;BMP_temperature;BMP_pressure;BME280_temperature;BME280_humidity;BME280_pressure;Samples;Min_cycle;Max_cycle;Signal;HPM_P1;HPM_P2
2023/01/28 18:07:49;;;;;;;;;44.67;31.67;;;;;-0.82;82.90;99242.91;4767414;23;104769;-75
2023/01/28 18:10:16;;;;;;;;;46.67;38.33;;;;;-0.73;82.99;99267.91;4914815;28;102312;-75
2023/01/28 18:12:43;;;;;;;;;44.00;34.00;;;;;-0.72;83.31;99256.34;4914120;28;104051;-75
2023/01/28 18:15:10;;;;;;;;;48.00;38.00;;;;;-0.66;83.42;99258.50;4916093;28;102675;-75
2023/01/28 18:17:37;;;;;;;;;29.00;23.00;;;;;-0.62;83.21;99262.63;4907001;28;102298;-75
2023/01/28 18:20:05;;;;;;;;;43.00;30.00;;;;;-0.63;82.66;99263.63;4910959;28;102123;-75
2023/01/28 18:22:32;;;;;;;;;30.67;25.67;;;;;-0.61;83.21;99261.69;4916842;28;104039;-78
2023/01/28 18:24:59;;;;;;;;;30.67;23.00;;;;;-0.58;82.46;99270.25;4920170;28;102159;-76
2023/01/28 18:27:26;;;;;;;;;30.33;22.33;;;;;-0.55;81.76;99269.19;4916655;28;102411;-77
2023/01/28 18:29:53;;;;;;;;;28.33;22.33;;;;;-0.54;82.34;99257.63;4912355;28;102363;-77
2023/01/28 18:32:20;;;;;;;;;16.00;14.67;;;;;-0.48;80.97;99267.75;4907443;28;104016;-75
2023/01/28 18:34:58;;;;;;;;;19.67;15.00;;;;;-0.45;81.49;99263.06;4914399;28;101974;-75
2023/01/28 18:38:01;;;;;;;;;14.00;12.00;;;;;-0.39;81.91;99261.75;4913118;28;102152;-75
2023/01/28 18:40:59;;;;;;;;;10.33;8.67;;;;;-0.35;81.70;99260.56;4917789;28;102403;-74
2023/01/28 18:43:45;;;;;;;;;8.33;5.67;;;;;-0.32;81.19;99260.34;4909637;28;107435;-74
2023/01/28 18:46:31;;;;;;;;;30.67;20.33;;;;;-0.46;82.83;99264.03;4913343;28;102094;-76
2023/01/28 18:49:16;;;;;;;;;40.00;34.00;;;;;-0.59;81.91;99271.25;4911640;28;102010;-77
2023/01/28 18:51:55;;;;;;;;;42.67;35.67;;;;;-0.71;84.68;99265.97;4911496;28;102004;-77
2023/01/28 18:54:23;;;;;;;;;36.00;30.67;;;;;-0.69;83.54;99259.59;4914950;28;104303;-78
2023/01/28 18:56:50;;;;;;;;;36.67;28.33;;;;;-0.73;84.53;99259.94;4917636;28;103364;-75
2023/01/28 18:59:17;;;;;;;;;39.00;30.33;;;;;-0.79;85.67;99271.00;4917802;28;102298;-77
2023/01/28 19:01:46;;;;;;;;;32.33;25.00;;;;;-0.73;87.21;99278.53;4917343;28;102436;-77
2023/01/28 19:04:14;;;;;;;;;44.00;31.00;;;;;-0.75;86.76;99280.44;4910042;28;104006;-75
2023/01/28 19:06:41;;;;;;;;;39.00;28.67;;;;;-0.75;87.03;99270.66;4922398;28;102912;-77
2023/01/28 19:09:10;;;;;;;;;52.67;36.33;;;;;-1.11;87.98;99220.31;4914217;28;102249;-76
2023/01/28 19:11:39;;;;;;;;;41.33;32.33;;;;;-0.78;87.90;99272.72;4914267;28;102083;-76
2023/01/28 19:14:07;;;;;;;;;27.33;23.33;;;;;-0.73;88.62;99274.06;4910948;28;104095;-76
2023/01/28 19:16:36;;;;;;;;;13.00;7.33;;;;;-0.65;87.73;99281.47;4914633;28;103145;-77
2023/01/28 19:19:03;;;;;;;;;33.33;24.33;;;;;-0.77;89.48;99274.41;4915440;28;102045;-77
2023/01/28 19:21:31;;;;;;;;;32.33;25.67;;;;;-0.75;89.56;99283.09;4920282;28;102242;-77
2023/01/28 19:24:13;;;;;;;;;26.00;22.00;;;;;-0.70;89.04;99278.28;4916613;28;108659;-76
2023/01/28 19:26:43;;;;;;;;;31.67;25.00;;;;;-0.73;90.64;99283.84;4909685;28;102489;-76
2023/01/28 19:29:12;;;;;;;;;33.33;22.67;;;;;-0.67;90.27;99288.69;4915898;28;102276;-76
2023/01/28 19:31:43;;;;;;;;;24.33;15.67;;;;;-0.63;89.67;99284.88;4914425;28;102643;-78
2023/01/28 19:34:10;;;;;;;;;33.67;25.67;;;;;-0.71;90.12;99284.56;4928383;28;104222;-76
2023/01/28 19:36:37;;;;;;;;;41.33;26.67;;;;;-0.77;90.69;99271.75;4912327;28;102467;-78
2023/01/28 19:39:06;;;;;;;;;43.00;35.67;;;;;-0.75;90.65;99286.59;4914071;28;101941;-77
2023/01/28 19:41:35;;;;;;;;;37.00;31.67;;;;;-0.76;92.27;99284.03;4913098;28;102499;-78
2023/01/28 19:44:03;;;;;;;;;44.00;33.67;;;;;-0.75;92.21;99285.75;4915418;28;104047;-76
2023/01/28 19:46:30;;;;;;;;;26.00;22.00;;;;;-0.70;92.43;99289.75;4912964;28;102578;-76
2023/01/28 19:48:57;;;;;;;;;33.00;25.00;;;;;-0.72;92.55;99286.38;4914789;28;102365;-77
2023/01/28 19:51:24;;;;;;;;;26.00;24.00;;;;;-0.76;92.17;99289.34;4912610;28;102136;-76
2023/01/28 19:53:52;;;;;;;;;36.67;28.00;;;;;-0.82;92.15;99289.84;4911273;28;104000;-76
2023/01/28 19:56:21;;;;;;;;;35.67;28.67;;;;;-0.75;93.19;99294.56;4915407;28;102206;-75
2023/01/28 19:58:49;;;;;;;;;34.00;25.00;;;;;-0.71;92.68;99292.53;4915454;28;102177;-76
2023/01/28 20:01:18;;;;;;;;;27.00;18.33;;;;;-0.65;91.93;99302.69;4916577;28;103257;-76
2023/01/28 20:03:51;;;;;;;;;24.00;18.67;;;;;-0.67;93.13;99289.53;4910421;28;104128;-78
2023/01/28 20:06:18;;;;;;;;;27.67;18.00;;;;;-0.66;92.55;99306.31;4915109;28;102127;-76
2023/01/28 20:08:50;;;;;;;;;32.67;26.67;;;;;-1.11;92.70;99245.03;4914302;28;103115;-78
2023/01/28 20:11:18;;;;;;;;;46.67;41.33;;;;;-0.80;93.88;99306.47;4918663;28;102309;-78
2023/01/28 20:13:46;;;;;;;;;52.33;41.00;;;;;-0.77;94.12;99303.63;4917666;28;104049;-79
2023/01/28 20:16:18;;;;;;;;;44.33;34.33;;;;;-0.75;93.51;99299.03;4916543;28;102623;-77
2023/01/28 20:18:50;;;;;;;;;61.33;47.00;;;;;-0.94;94.08;99291.56;4921599;28;102209;-77
2023/01/28 20:21:18;;;;;;;;;68.33;50.33;;;;;-0.96;94.92;99304.97;4915850;28;102086;-77
2023/01/28 20:23:47;;;;;;;;;60.33;46.33;;;;;-1.01;95.51;99307.09;4911578;28;104011;-78
2023/01/28 20:26:14;;;;;;;;;63.67;44.33;;;;;-0.99;96.20;99310.47;4909960;28;102674;-77
2023/01/28 20:28:41;;;;;;;;;57.00;38.33;;;;;-0.97;95.57;99307.72;4911945;28;101952;-78
2023/01/28 20:31:09;;;;;;;;;68.67;50.33;;;;;-1.06;95.68;99317.19;4914907;28;103251;-78
2023/01/28 20:33:37;;;;;;;;;64.67;46.33;;;;;-1.18;96.98;99318.09;4910176;28;104088;-78
2023/01/28 20:36:08;;;;;;;;;38.33;34.33;;;;;-1.13;97.08;99318.59;4907770;28;102505;-77
2023/01/28 20:38:37;;;;;;;;;50.00;40.67;;;;;-1.14;96.27;99316.06;4912466;28;102110;-77
2023/01/28 20:41:09;;;;;;;;;39.67;34.67;;;;;-1.16;95.68;99318.81;4914726;28;102178;-77
2023/01/28 20:43:38;;;;;;;;;36.33;30.67;;;;;-1.10;96.21;99315.72;4914753;28;104291;-77
2023/01/28 20:46:07;;;;;;;;;47.67;34.33;;;;;-1.09;95.99;99319.22;4907574;28;102340;-77
2023/01/28 20:48:34;;;;;;;;;32.33;28.33;;;;;-1.12;96.41;99324.72;4915259;28;102287;-77
2023/01/28 20:51:10;;;;;;;;;33.67;26.67;;;;;-1.08;94.98;99320.94;4916736;28;102289;-78
2023/01/28 20:53:37;;;;;;;;;31.67;23.33;;;;;-1.04;94.33;99322.41;4920547;28;108584;-77
2023/01/28 20:56:04;;;;;;;;;33.33;24.67;;;;;-1.13;94.23;99313.31;4913309;28;102332;-78
2023/01/28 20:58:33;;;;;;;;;20.33;17.00;;;;;-1.15;94.56;99311.69;4914814;28;102340;-77
2023/01/28 21:01:00;;;;;;;;;34.67;23.00;;;;;-1.16;93.85;99308.19;4914331;28;101989;-77
2023/01/28 21:03:27;;;;;;;;;24.67;22.00;;;;;-1.06;93.40;99319.84;4914274;28;103723;-77
2023/01/28 21:05:54;;;;;;;;;22.00;16.67;;;;;-1.04;93.78;99322.41;4912919;28;102122;-77
2023/01/28 21:08:22;;;;;;;;;28.33;23.67;;;;;-1.12;90.48;99314.13;4915280;28;102355;-76
2023/01/28 21:10:49;;;;;;;;;31.00;24.67;;;;;-1.26;91.43;99319.59;4917068;28;102525;-77
2023/01/28 21:13:16;;;;;;;;;19.33;18.00;;;;;-1.28;91.89;99325.00;4908664;28;104153;-78
2023/01/28 21:15:51;;;;;;;;;27.00;23.33;;;;;-1.26;92.73;99335.50;4907183;28;102382;-77
2023/01/28 21:18:18;;;;;;;;;31.33;23.33;;;;;-1.27;92.92;99334.66;4915507;28;102126;-77
2023/01/28 21:20:45;;;;;;;;;30.33;24.67;;;;;-1.24;92.43;99339.75;4914759;28;102104;-77
2023/01/28 21:23:13;;;;;;;;;22.33;18.67;;;;;-1.22;92.78;99345.78;4915834;28;104019;-77
2023/01/28 21:25:42;;;;;;;;;25.67;19.00;;;;;-1.26;92.19;99349.59;4915458;28;102120;-77
2023/01/28 21:28:09;;;;;;;;;24.00;21.00;;;;;-1.28;92.29;99351.53;4913677;28;102196;-77
2023/01/28 21:30:37;;;;;;;;;24.00;19.00;;;;;-1.21;91.36;99355.44;4914839;28;102430;-76
2023/01/28 21:33:05;;;;;;;;;26.00;24.00;;;;;-1.30;91.64;99353.44;4932068;28;104055;-77
2023/01/28 21:35:39;;;;;;;;;32.00;26.33;;;;;-1.28;91.32;99361.28;4919172;28;102877;-77
2023/01/28 21:38:06;;;;;;;;;26.00;23.00;;;;;-1.25;92.04;99361.91;4913106;28;102009;-75
2023/01/28 21:40:34;;;;;;;;;26.33;21.33;;;;;-1.27;91.40;99365.63;4911000;28;103424;-76
2023/01/28 21:43:02;;;;;;;;;37.00;24.00;;;;;-1.27;90.78;99361.19;4915289;28;109406;-76
2023/01/28 21:45:29;;;;;;;;;23.00;21.33;;;;;-1.20;91.36;99372.19;4916780;28;102127;-76
2023/01/28 21:47:56;;;;;;;;;27.67;18.00;;;;;-1.27;90.37;99369.16;4916532;28;102103;-76
2023/01/28 21:50:23;;;;;;;;;22.00;21.00;;;;;-1.24;90.41;99368.91;4919529;28;102359;-77
2023/01/28 21:52:50;;;;;;;;;25.00;18.00;;;;;-1.20;90.13;99365.09;4915461;28;104428;-77
2023/01/28 21:55:18;;;;;;;;;22.67;22.00;;;;;-1.26;89.36;99360.22;4914094;28;102422;-77
2023/01/28 21:57:45;;;;;;;;;19.67;19.67;;;;;-1.32;88.42;99365.97;4918366;28;102164;-76
2023/01/28 22:00:12;;;;;;;;;24.67;21.00;;;;;-1.33;88.56;99364.25;4917785;28;102444;-76
2023/01/28 22:02:39;;;;;;;;;28.00;21.00;;;;;-1.31;89.02;99367.66;4914681;28;104030;-76
2023/01/28 22:05:07;;;;;;;;;16.00;13.00;;;;;-1.29;87.63;99368.38;4918984;28;102301;-76
2023/01/28 22:07:34;;;;;;;;;28.00;16.67;;;;;-1.30;88.89;99353.44;4918610;28;102490;-76
2023/01/28 22:10:01;;;;;;;;;16.67;15.67;;;;;-1.25;87.56;99374.31;4920209;28;102274;-74
2023/01/28 22:12:28;;;;;;;;;23.33;19.67;;;;;-1.27;88.36;99366.50;4917606;28;104027;-75
2023/01/28 22:14:55;;;;;;;;;21.67;19.67;;;;;-1.36;87.08;99353.88;4913561;28;102095;-76
2023/01/28 22:17:22;;;;;;;;;22.33;20.33;;;;;-1.34;88.67;99357.25;4913492;28;102446;-76
2023/01/28 22:19:49;;;;;;;;;21.67;15.33;;;;;-1.29;88.26;99357.78;4918099;28;102411;-76
2023/01/28 22:22:17;;;;;;;;;22.67;18.67;;;;;-1.25;88.09;99356.59;4916287;28;104043;-76
2023/01/28 22:24:43;;;;;;;;;20.33;15.00;;;;;-1.22;88.97;99353.75;4911306;28;102670;-76
2023/01/28 22:27:10;;;;;;;;;25.67;23.00;;;;;-1.30;86.50;99355.22;4916395;28;104722;-76
2023/01/28 22:29:37;;;;;;;;;24.67;17.00;;;;;-1.31;87.05;99351.75;4918435;28;102108;-76
2023/01/28 22:32:04;;;;;;;;;13.33;11.00;;;;;-1.38;87.67;99361.94;4914017;28;104067;-76
2023/01/28 22:34:31;;;;;;;;;25.00;16.33;;;;;-1.40;88.55;99370.97;4915707;28;102196;-76
2023/01/28 22:36:58;;;;;;;;;19.67;12.67;;;;;-1.43;86.79;99371.16;4917966;28;102260;-76
2023/01/28 22:39:25;;;;;;;;;19.00;14.33;;;;;-1.50;86.53;99373.41;4918016;28;102191;-77
2023/01/28 22:41:52;;;;;;;;;15.00;14.00;;;;;-1.51;87.70;99378.81;4918409;28;104015;-76
2023/01/28 22:44:19;;;;;;;;;18.33;14.00;;;;;-1.55;87.61;99379.97;4916966;28;102810;-76
2023/01/28 22:46:46;;;;;;;;;14.67;13.33;;;;;-1.63;87.85;99372.56;4916707;28;102200;-76
2023/01/28 22:49:14;;;;;;;;;21.33;15.00;;;;;-1.56;88.31;99386.22;4914577;28;102325;-76
2023/01/28 22:51:41;;;;;;;;;16.33;14.00;;;;;-1.71;86.53;99368.75;4915656;28;106285;-76
2023/01/28 22:54:10;;;;;;;;;15.00;14.33;;;;;-1.61;87.53;99385.69;4917277;28;103155;-77
2023/01/28 22:56:37;;;;;;;;;12.00;11.00;;;;;-1.66;89.25;99378.06;4916499;28;102486;-76
2023/01/28 22:59:04;;;;;;;;;15.33;13.33;;;;;-1.60;87.57;99379.44;4917580;28;102425;-76
2023/01/28 23:01:32;;;;;;;;;18.67;14.00;;;;;-1.55;88.04;99382.63;4917452;28;108916;-76
2023/01/28 23:03:59;;;;;;;;;12.33;12.00;;;;;-1.63;86.59;99383.16;4915562;28;102572;-76
2023/01/28 23:06:26;;;;;;;;;19.00;11.33;;;;;-1.66;86.49;99377.19;4915060;28;102752;-76
2023/01/28 23:08:55;;;;;;;;;14.00;11.67;;;;;-1.67;84.77;99375.53;4916926;28;102301;-76
2023/01/28 23:11:26;;;;;;;;;13.33;9.67;;;;;-1.66;83.40;99379.84;4916875;28;104202;-77
2023/01/28 23:25:10;;;;;;;;;11.33;8.67;;;;;-1.70;87.53;99359.81;4909577;28;102211;-76
2023/01/28 23:27:37;;;;;;;;;7.67;5.67;;;;;-1.67;87.25;99370.22;4912431;28;102429;-77
2023/01/28 23:30:08;;;;;;;;;13.33;10.67;;;;;-1.70;87.61;99365.13;4915729;28;102118;-75
2023/01/28 23:32:51;;;;;;;;;21.67;15.67;;;;;-1.68;88.18;99357.91;4913927;28;108888;-76
2023/01/28 23:35:18;;;;;;;;;4.00;4.00;;;;;-1.68;86.69;99358.78;4909788;28;102372;-76
2023/01/28 23:37:46;;;;;;;;;18.00;14.33;;;;;-1.65;88.69;99353.25;4906936;28;102054;-77
2023/01/28 23:40:14;;;;;;;;;14.67;12.00;;;;;-1.61;86.97;99354.72;4909191;28;102243;-77
2023/01/28 23:42:46;;;;;;;;;14.00;12.00;;;;;-1.62;87.98;99346.91;4916258;28;104206;-77
2023/01/28 23:45:14;;;;;;;;;15.67;14.00;;;;;-1.63;88.54;99353.16;4914731;28;102151;-77
2023/01/28 23:47:41;;;;;;;;;31.00;21.33;;;;;-1.91;89.17;99347.09;4912536;28;102166;-77
2023/01/28 23:50:09;;;;;;;;;28.00;23.33;;;;;-1.97;90.52;99339.56;4908118;28;102826;-77
2023/01/28 23:52:36;;;;;;;;;21.00;16.67;;;;;-1.99;91.63;99328.22;4914545;28;104126;-77
2023/01/28 23:55:03;;;;;;;;;27.33;20.67;;;;;-1.89;91.66;99341.69;4910704;28;102531;-77
2023/01/28 23:57:30;;;;;;;;;28.33;20.33;;;;;-2.03;92.43;99342.63;4913425;28;102838;-78
2023/01/28 23:59:57;;;;;;;;;36.33;31.67;;;;;-2.05;92.99;99344.53;4931032;28;102423;-77
